Time;durP1;ratioP1;P1;durP2;ratioP2;P2;SDS_P1;SDS_P2;PMS_P1;PMS_P2;Temp;Humidity;BMP_temperature;BMP_pressure;BME280_temperature;BME280_humidity;BME280_pressure;Samples;Min_cycle;Max_cycle;Signal;HPM_P1;HPM_P2
2021/07/16 00:00:29;;;;;;;14.80;2.28;;;21.20;99.90;;;;;;5016988;28;20030;-74
2021/07/16 00:02:55;;;;;;;6.40;2.35;;;21.20;99.90;;;;;;5017534;28;20014;-75
2021/07/16 00:05:23;;;;;;;7.88;3.25;;;21.20;99.90;;;;;;5018356;28;20160;-74
2021/07/16 00:07:49;;;;;;;3.80;2.20;;;21.20;99.90;;;;;;5018110;28;20030;-74
2021/07/16 00:10:18;;;;;;;6.50;2.85;;;21.10;99.90;;;;;;5018121;28;20494;-74
2021/07/16 00:12:48;;;;;;;13.48;2.55;;;21.10;99.90;;;;;;5018221;28;20092;-73
2021/07/16 00:15:16;;;;;;;10.98;3.67;;;21.10;99.90;;;;;;5018526;28;20087;-75
2021/07/16 00:17:42;;;;;;;11.23;2.58;;;21.00;99.90;;;;;;5018674;28;20018;-74
2021/07/16 00:20:10;;;;;;;6.88;2.55;;;21.00;99.90;;;;;;5018185;28;20022;-74
2021/07/16 00:22:37;;;;;;;5.60;3.08;;;21.00;99.90;;;;;;5017853;28;20029;-74
2021/07/16 00:25:05;;;;;;;8.18;2.28;;;21.00;99.90;;;;;;5018527;28;20510;-74
2021/07/16 00:27:31;;;;;;;9.00;2.40;;;21.00;99.90;;;;;;5018573;28;20380;-73
2021/07/16 00:29:56;;;;;;;5.78;2.65;;;21.00;99.90;;;;;;5017704;28;20105;-73
2021/07/16 00:32:22;;;;;;;9.00;2.88;;;21.00;99.90;;;;;;5017966;28;20030;-75
2021/07/16 00:34:48;;;;;;;3.70;2.70;;;21.00;99.90;;;;;;5018594;28;20022;-74
2021/07/16 00:37:14;;;;;;;5.47;2.60;;;21.00;99.90;;;;;;5018130;28;20500;-73
2021/07/16 00:39:39;;;;;;;5.90;2.53;;;21.00;99.90;;;;;;5000843;28;20022;-73
2021/07/16 00:42:05;;;;;;;9.98;2.95;;;21.00;99.90;;;;;;5018266;28;20076;-73
2021/07/16 00:44:36;;;;;;;10.13;2.42;;;21.00;99.90;;;;;;5017911;28;20062;-73
2021/07/16 00:47:05;;;;;;;8.38;2.97;;;21.00;99.90;;;;;;5018105;28;20026;-73
2021/07/16 00:49:31;;;;;;;6.75;2.67;;;21.00;99.90;;;;;;5018379;28;20030;-74
2021/07/16 00:51:57;;;;;;;6.70;2.40;;;21.00;99.90;;;;;;5018003;28;20120;-74
2021/07/16 00:54:23;;;;;;;12.77;3.10;;;21.00;99.90;;;;;;5018027;28;20024;-73
2021/07/16 00:56:52;;;;;;;7.25;2.58;;;21.10;99.90;;;;;;5017635;28;20034;-74
2021/07/16 00:59:18;;;;;;;7.97;2.55;;;21.00;99.90;;;;;;5018056;28;20026;-74
2021/07/16 01:01:46;;;;;;;6.15;2.67;;;21.00;99.90;;;;;;5018194;28;20028;-73
2021/07/16 01:04:12;;;;;;;7.50;3.28;;;21.00;99.90;;;;;;5013275;28;20038;-74
2021/07/16 01:06:38;;;;;;;3.53;2.05;;;21.00;99.90;;;;;;5014800;28;20033;-74
2021/07/16 01:09:08;;;;;;;8.45;2.67;;;21.00;99.90;;;;;;5014357;28;20049;-74
2021/07/16 01:11:34;;;;;;;5.70;2.50;;;21.10;99.90;;;;;;5014538;28;20030;-73
2021/07/16 01:14:00;;;;;;;10.35;3.35;;;21.10;99.90;;;;;;5014539;28;20037;-73
2021/07/16 01:16:26;;;;;;;18.25;2.88;;;21.00;99.90;;;;;;5014554;28;20068;-73
2021/07/16 01:18:51;;;;;;;7.05;2.40;;;21.00;99.90;;;;;;4997192;28;20054;-74
2021/07/16 01:21:18;;;;;;;9.95;2.67;;;21.00;99.90;;;;;;5014631;28;20101;-74
2021/07/16 01:23:44;;;;;;;16.48;2.30;;;21.00;99.90;;;;;;5014664;28;20121;-74
2021/07/16 01:26:10;;;;;;;11.13;3.22;;;21.00;99.90;;;;;;5013454;28;20112;-74
2021/07/16 01:28:39;;;;;;;4.30;2.60;;;21.00;99.90;;;;;;5014047;28;20096;-74
2021/07/16 01:31:07;;;;;;;15.55;2.40;;;21.00;99.90;;;;;;5014084;28;20018;-73
2021/07/16 01:33:33;;;;;;;7.82;2.20;;;21.00;99.90;;;;;;5012444;28;20483;-73
2021/07/16 01:36:01;;;;;;;7.68;2.35;;;20.90;99.90;;;;;;5013802;28;20117;-73
2021/07/16 01:38:28;;;;;;;4.70;2.13;;;20.90;99.90;;;;;;5013897;28;20026;-73
2021/07/16 01:40:55;;;;;;;8.55;2.20;;;20.90;99.90;;;;;;5013736;28;20045;-73
2021/07/16 01:43:20;;;;;;;7.90;2.10;;;20.90;99.90;;;;;;5014259;28;20018;-75
2021/07/16 01:45:46;;;;;;;11.57;2.78;;;21.00;99.90;;;;;;5014030;28;20096;-73
2021/07/16 01:48:14;;;;;;;7.93;2.38;;;20.90;99.90;;;;;;5013169;28;20040;-73
2021/07/16 01:50:49;;;;;;;6.30;2.35;;;20.90;99.90;;;;;;5013456;28;20022;-73
2021/07/16 01:53:18;;;;;;;6.18;2.20;;;21.00;99.90;;;;;;5013809;28;20113;-72
2021/07/16 01:55:46;;;;;;;5.60;1.88;;;21.00;99.90;;;;;;5013868;28;20471;-73
2021/07/16 01:58:14;;;;;;;4.47;2.47;;;21.00;99.90;;;;;;5013992;28;20030;-73
2021/07/16 02:00:42;;;;;;;8.13;2.33;;;21.00;99.90;;;;;;5009133;28;20093;-74
2021/07/16 02:03:11;;;;;;;5.55;2.65;;;21.00;99.90;;;;;;5013636;28;20024;-74
2021/07/16 02:05:39;;;;;;;8.02;2.40;;;21.00;99.90;;;;;;5012772;28;20030;-74
2021/07/16 02:08:11;;;;;;;2.83;2.03;;;21.00;99.90;;;;;;5013622;28;20025;-74
2021/07/16 02:10:37;;;;;;;6.82;2.30;;;20.90;99.90;;;;;;5013544;28;20390;-74
2021/07/16 02:13:03;;;;;;;6.05;2.65;;;20.90;99.90;;;;;;5013649;28;20029;-74
2021/07/16 02:15:33;;;;;;;3.85;2.33;;;20.90;99.90;;;;;;5012434;28;20044;-75
2021/07/16 02:17:59;;;;;;;10.68;2.47;;;21.00;99.90;;;;;;5013118;28;20018;-74
2021/07/16 02:20:36;;;;;;;9.25;2.35;;;21.10;99.90;;;;;;5013343;28;20022;-74
2021/07/16 02:23:11;;;;;;;4.18;2.10;;;21.10;99.90;;;;;;5012620;28;20038;-74
2021/07/16 02:25:37;;;;;;;19.23;2.33;;;21.10;99.90;;;;;;5012833;28;20474;-75
2021/07/16 02:28:28;;;;;;;6.40;2.28;;;21.10;99.90;;;;;;5012513;28;20036;-74
2021/07/16 02:30:54;;;;;;;8.98;3.10;;;21.20;99.90;;;;;;5004628;28;20036;-74
2021/07/16 02:33:23;;;;;;;7.30;2.38;;;21.30;99.90;;;;;;4995720;28;20026;-74
2021/07/16 02:35:49;;;;;;;8.82;2.22;;;21.30;99.90;;;;;;5012841;28;20037;-73
2021/07/16 02:38:15;;;;;;;7.20;2.45;;;21.30;99.90;;;;;;5012968;28;20034;-73
2021/07/16 02:40:41;;;;;;;6.65;2.60;;;21.30;99.90;;;;;;5012972;28;20049;-74
2021/07/16 02:43:08;;;;;;;6.30;2.25;;;21.30;99.90;;;;;;5013450;28;20367;-73
2021/07/16 02:45:35;;;;;;;6.88;2.67;;;21.30;99.90;;;;;;5013240;28;20022;-74
2021/07/16 02:48:00;;;;;;;6.63;2.13;;;21.20;99.90;;;;;;5012531;28;20021;-73
2021/07/16 02:50:35;;;;;;;8.75;2.35;;;21.20;99.90;;;;;;5012368;28;20432;-73
2021/07/16 02:53:01;;;;;;;16.75;2.72;;;21.20;99.90;;;;;;5013079;28;20478;-73
2021/07/16 02:55:27;;;;;;;7.47;2.38;;;21.30;99.90;;;;;;5012634;28;20096;-73
2021/07/16 02:57:53;;;;;;;6.07;2.20;;;21.30;99.90;;;;;;5012789;28;20044;-74
2021/07/16 03:00:27;;;;;;;6.10;2.67;;;21.20;99.90;;;;;;5013001;28;20370;-73
2021/07/16 03:02:53;;;;;;;8.13;2.10;;;21.30;99.90;;;;;;5012874;28;20026;-73
2021/07/16 03:05:24;;;;;;;5.68;2.28;;;21.20;99.90;;;;;;5012913;28;20746;-74
2021/07/16 03:07:51;;;;;;;4.47;2.25;;;21.30;99.90;;;;;;5013115;28;20030;-75
2021/07/16 03:10:26;;;;;;;7.82;2.47;;;21.30;99.90;;;;;;5012333;28;20045;-73
2021/07/16 03:12:54;;;;;;;5.22;2.75;;;21.30;99.90;;;;;;4999336;28;20072;-74
2021/07/16 03:15:21;;;;;;;8.65;2.90;;;21.40;99.90;;;;;;5012525;28;20114;-76
2021/07/16 03:17:48;;;;;;;8.68;2.40;;;21.30;99.90;;;;;;5012571;28;20052;-73
2021/07/16 03:20:16;;;;;;;11.63;2.22;;;21.30;99.90;;;;;;4994897;28;20010;-74
2021/07/16 03:22:42;;;;;;;12.65;2.95;;;21.30;99.90;;;;;;4994725;28;20104;-74
2021/07/16 03:25:11;;;;;;;10.68;2.30;;;21.30;99.90;;;;;;5012857;28;20017;-74
2021/07/16 03:27:38;;;;;;;11.10;2.50;;;21.30;99.90;;;;;;5011731;28;20030;-74
2021/07/16 03:30:07;;;;;;;7.22;2.38;;;21.30;99.90;;;;;;5012108;28;20490;-73
2021/07/16 03:32:34;;;;;;;9.55;2.20;;;21.30;99.90;;;;;;5011561;28;20061;-74
2021/07/16 03:34:59;;;;;;;7.93;2.90;;;21.30;99.90;;;;;;5012027;28;20041;-74
2021/07/16 03:37:25;;;;;;;4.78;2.50;;;21.20;99.90;;;;;;5012201;28;20466;-75
2021/07/16 03:39:51;;;;;;;5.10;2.28;;;21.20;99.90;;;;;;5012050;28;20635;-74
2021/07/16 03:42:19;;;;;;;14.10;2.70;;;21.30;99.90;;;;;;5012271;28;20026;-76
2021/07/16 03:44:46;;;;;;;5.35;2.17;;;21.30;99.90;;;;;;5012493;28;20112;-74
2021/07/16 03:47:15;;;;;;;9.57;2.13;;;21.30;99.90;;;;;;5012104;28;20022;-77
2021/07/16 03:49:42;;;;;;;5.85;1.98;;;21.30;99.90;;;;;;5011854;28;20022;-74
2021/07/16 03:52:09;;;;;;;5.13;2.08;;;21.40;99.90;;;;;;5011441;28;20033;-74
2021/07/16 03:54:36;;;;;;;6.10;2.13;;;21.40;99.90;;;;;;5012504;28;20037;-75
2021/07/16 03:57:03;;;;;;;8.50;2.53;;;21.40;99.90;;;;;;5012059;28;20042;-74
2021/07/16 03:59:29;;;;;;;5.90;2.30;;;21.40;99.90;;;;;;5012063;28;20025;-74
2021/07/16 04:01:54;;;;;;;3.58;1.77;;;21.40;99.90;;;;;;5011841;28;20164;-74
2021/07/16 04:04:20;;;;;;;7.38;1.90;;;21.50;99.90;;;;;;5011728;28;20075;-74
2021/07/16 04:06:56;;;;;;;7.85;2.40;;;21.60;99.90;;;;;;5011438;28;20022;-72
2021/07/16 04:09:29;;;;;;;7.38;2.20;;;21.70;99.90;;;;;;5011834;28;20052;-74
2021/07/16 04:12:10;;;;;;;6.85;2.53;;;21.80;99.90;;;;;;5011905;28;20026;-75
2021/07/16 04:14:38;;;;;;;7.40;2.20;;;21.90;99.90;;;;;;4998770;28;20071;-74
2021/07/16 04:17:14;;;;;;;3.97;2.20;;;22.00;99.90;;;;;;5011847;28;20095;-74
2021/07/16 04:19:40;;;;;;;8.60;2.78;;;22.00;99.90;;;;;;5011493;28;20022;-73
2021/07/16 04:22:07;;;;;;;9.65;2.08;;;22.10;99.90;;;;;;4993834;28;20605;-75
2021/07/16 04:24:39;;;;;;;4.40;2.00;;;22.20;99.90;;;;;;5011593;28;20034;-74
2021/07/16 04:27:06;;;;;;;8.20;2.35;;;22.30;99.90;;;;;;5012003;28;20022;-74
2021/07/16 04:29:33;;;;;;;8.77;2.17;;;22.40;99.90;;;;;;5011597;28;20022;-74
2021/07/16 04:32:00;;;;;;;5.70;2.25;;;22.50;99.90;;;;;;5011687;28;20253;-74
2021/07/16 04:34:30;;;;;;;5.60;1.77;;;22.60;99.90;;;;;;5011471;28;20463;-74
2021/07/16 04:36:56;;;;;;;8.95;2.30;;;22.70;99.90;;;;;;5011406;28;20050;-74
2021/07/16 04:39:22;;;;;;;3.97;1.67;;;22.80;99.90;;;;;;5015288;28;20475;-75
2021/07/16 04:41:48;;;;;;;10.13;2.08;;;22.90;99.90;;;;;;5014718;28;20040;-80
2021/07/16 04:44:13;;;;;;;10.70;1.65;;;23.00;99.90;;;;;;5015507;28;20440;-74
2021/07/16 04:46:39;;;;;;;5.25;2.10;;;23.10;99.90;;;;;;5015016;28;20022;-74
2021/07/16 04:49:06;;;;;;;4.70;1.85;;;23.30;99.90;;;;;;5014780;28;20053;-82
2021/07/16 04:51:33;;;;;;;5.82;1.77;;;23.30;99.90;;;;;;5015114;28;20033;-76
2021/07/16 04:54:01;;;;;;;10.10;2.55;;;23.40;99.90;;;;;;5014911;28;20018;-75
2021/07/16 04:56:27;;;;;;;3.35;1.80;;;23.40;99.90;;;;;;5015037;28;20037;-83
2021/07/16 04:58:53;;;;;;;10.98;2.10;;;23.40;99.90;;;;;;5015001;28;20030;-76
2021/07/16 05:01:22;;;;;;;5.20;2.00;;;23.50;99.90;;;;;;5014531;28;20478;-83
2021/07/16 05:03:49;;;;;;;8.05;2.13;;;23.60;99.90;;;;;;5014582;28;20029;-74
2021/07/16 05:06:16;;;;;;;12.05;1.88;;;24.20;99.90;;;;;;5014690;28;20026;-78
2021/07/16 05:08:42;;;;;;;5.18;2.10;;;24.90;99.90;;;;;;5014829;28;20550;-82
2021/07/16 05:11:09;;;;;;;9.05;2.00;;;25.70;99.90;;;;;;5014282;28;20109;-77
2021/07/16 05:13:39;;;;;;;6.28;2.13;;;26.30;99.90;;;;;;5003624;28;20018;-76
2021/07/16 05:16:07;;;;;;;4.55;1.70;;;26.60;99.90;;;;;;5013083;28;20036;-77
2021/07/16 05:18:33;;;;;;;3.15;1.70;;;27.40;99.40;;;;;;5014230;28;20033;-75
2021/07/16 05:21:00;;;;;;;6.57;1.73;;;27.80;98.00;;;;;;5014541;28;20033;-77
2021/07/16 05:23:26;;;;;;;12.10;2.03;;;27.70;98.00;;;;;;5014296;28;20073;-76
2021/07/16 05:25:52;;;;;;;6.93;2.05;;;27.50;97.70;;;;;;5014441;28;20030;-78
2021/07/16 05:28:18;;;;;;;7.72;1.63;;;27.50;98.00;;;;;;5014504;28;20030;-76
2021/07/16 05:30:44;;;;;;;4.45;1.88;;;27.40;98.20;;;;;;5014174;28;20477;-80
2021/07/16 05:33:10;;;;;;;3.55;1.73;;;27.60;98.10;;;;;;5014474;28;20076;-78
2021/07/16 05:35:36;;;;;;;5.82;1.85;;;28.00;97.50;;;;;;5014030;28;20692;-79
2021/07/16 05:38:02;;;;;;;10.88;2.03;;;29.70;96.30;;;;;;5014018;28;20486;-77
2021/07/16 05:40:28;;;;;;;5.82;2.33;;;30.50;94.70;;;;;;5013489;28;20056;-77
2021/07/16 05:42:54;;;;;;;3.33;1.48;;;30.30;93.50;;;;;;5013985;28;20075;-79
2021/07/16 05:45:19;;;;;;;4.50;1.83;;;29.60;93.70;;;;;;5013758;28;20500;-77
2021/07/16 05:47:46;;;;;;;5.97;1.75;;;29.00;93.80;;;;;;5013955;28;20061;-77
2021/07/16 05:50:11;;;;;;;4.07;1.95;;;28.50;94.40;;;;;;5013306;28;20106;-78
2021/07/16 05:52:37;;;;;;;5.70;1.83;;;28.20;94.60;;;;;;5014185;28;20108;-78
2021/07/16 05:55:04;;;;;;;6.75;1.58;;;27.90;95.10;;;;;;5013457;28;20045;-78
2021/07/16 05:57:31;;;;;;;5.70;1.70;;;27.90;95.10;;;;;;5012538;28;20028;-79
2021/07/16 05:59:59;;;;;;;6.65;1.80;;;27.90;95.10;;;;;;5012332;28;20505;-81
2021/07/16 06:02:26;;;;;;;2.78;1.23;;;28.00;95.00;;;;;;5011812;28;20049;-86
2021/07/16 06:04:52;;;;;;;7.45;1.65;;;28.00;95.20;;;;;;4995402;28;20030;-77
2021/07/16 06:07:17;;;;;;;8.23;1.42;;;28.00;95.30;;;;;;5011875;28;20390;-78
2021/07/16 06:09:43;;;;;;;10.07;1.70;;;27.90;95.00;;;;;;5011985;28;20022;-84
2021/07/16 06:12:10;;;;;;;6.68;1.67;;;27.90;95.00;;;;;;5011665;28;20462;-77
2021/07/16 06:14:36;;;;;;;4.38;1.52;;;27.80;94.80;;;;;;5013486;28;20029;-79
2021/07/16 06:17:02;;;;;;;5.70;1.88;;;27.80;94.50;;;;;;5013083;28;20453;-77
2021/07/16 06:19:27;;;;;;;3.40;1.42;;;27.80;94.60;;;;;;5011574;28;20061;-78
2021/07/16 06:21:53;;;;;;;7.70;1.38;;;27.70;94.80;;;;;;5013060;28;20026;-83
2021/07/16 06:24:19;;;;;;;4.25;1.88;;;27.70;94.90;;;;;;5012572;28;20045;-80
2021/07/16 06:26:44;;;;;;;6.50;2.42;;;27.60;95.30;;;;;;5012808;28;20159;-83
2021/07/16 06:29:10;;;;;;;8.15;3.30;;;27.60;96.70;;;;;;5013103;28;20029;-78
2021/07/16 06:31:36;;;;;;;8.07;3.10;;;27.50;97.60;;;;;;5013175;28;20089;-82
2021/07/16 06:34:03;;;;;;;14.75;3.05;;;27.50;98.20;;;;;;5013532;28;20609;-81
2021/07/16 06:36:32;;;;;;;23.00;4.38;;;27.50;98.40;;;;;;5013243;28;20128;-75
2021/07/16 06:38:58;;;;;;;14.60;3.33;;;27.60;98.60;;;;;;5014076;28;20025;-77
2021/07/16 06:41:23;;;;;;;13.48;3.67;;;27.70;98.60;;;;;;5013532;28;20391;-79
2021/07/16 06:43:52;;;;;;;8.68;2.83;;;27.90;98.50;;;;;;5012966;28;20017;-84
2021/07/16 06:46:17;;;;;;;24.05;3.25;;;28.10;98.10;;;;;;5013001;28;20379;-76
2021/07/16 06:48:43;;;;;;;11.80;2.80;;;28.40;98.50;;;;;;5012764;28;20026;-76
2021/07/16 06:51:10;;;;;;;20.92;2.80;;;28.50;97.40;;;;;;5013321;28;20109;-80
2021/07/16 06:53:35;;;;;;;11.63;2.50;;;28.50;95.40;;;;;;5012805;28;20026;-78
2021/07/16 06:56:01;;;;;;;11.10;2.58;;;28.60;96.20;;;;;;5012464;28;20041;-79
2021/07/16 06:58:27;;;;;;;19.15;3.03;;;28.60;96.00;;;;;;5012530;28;20033;-84
2021/07/16 07:00:54;;;;;;;9.35;2.78;;;28.70;95.30;;;;;;5013268;28;20018;-89
2021/07/16 07:03:25;;;;;;;10.05;2.67;;;28.70;95.60;;;;;;5014217;28;20104;-77
2021/07/16 07:05:54;;;;;;;12.10;2.33;;;28.70;95.10;;;;;;5013709;28;20026;-76
2021/07/16 07:08:20;;;;;;;15.43;3.60;;;28.80;94.90;;;;;;5013370;28;20010;-77
2021/07/16 07:10:45;;;;;;;7.65;3.53;;;28.80;95.20;;;;;;5013856;28;20080;-87
2021/07/16 07:13:11;;;;;;;14.20;4.05;;;28.90;95.10;;;;;;5013245;28;20433;-74
2021/07/16 07:15:37;;;;;;;12.75;3.25;;;28.90;95.00;;;;;;5015539;28;20042;-76
2021/07/16 07:18:04;;;;;;;6.70;2.22;;;28.80;94.70;;;;;;5014202;28;20124;-76
2021/07/16 07:20:30;;;;;;;6.43;2.08;;;28.60;94.20;;;;;;5014378;28;20048;-90
2021/07/16 07:22:56;;;;;;;4.50;2.08;;;28.30;94.70;;;;;;5014334;28;20133;-75
2021/07/16 07:25:22;;;;;;;16.60;2.28;;;28.10;95.30;;;;;;5014151;28;20490;-82
2021/07/16 07:27:48;;;;;;;12.60;2.83;;;27.90;96.00;;;;;;5015139;28;20022;-88
2021/07/16 07:30:14;;;;;;;11.80;3.03;;;27.80;96.40;;;;;;5015212;28;20018;-78
2021/07/16 07:32:39;;;;;;;20.20;3.00;;;27.70;96.60;;;;;;5013995;28;20022;-81
2021/07/16 07:35:07;;;;;;;12.20;3.95;;;27.50;96.70;;;;;;5013645;28;20108;-76
2021/07/16 07:37:34;;;;;;;15.90;3.33;;;27.50;96.60;;;;;;5014085;28;20069;-84
2021/07/16 07:40:00;;;;;;;15.38;3.08;;;27.40;96.80;;;;;;5012850;28;20022;-81
2021/07/16 07:42:26;;;;;;;19.58;6.13;;;27.40;97.00;;;;;;5013382;28;20065;-84
2021/07/16 07:44:53;;;;;;;14.85;5.85;;;27.40;96.90;;;;;;5012379;28;20055;-76
2021/07/16 07:47:20;;;;;;;14.63;6.85;;;27.40;96.10;;;;;;5011806;28;20759;-79
2021/07/16 07:49:46;;;;;;;16.52;5.07;;;27.40;96.60;;;;;;5010541;28;20034;-76
2021/07/16 07:52:12;;;;;;;7.20;3.05;;;27.40;96.30;;;;;;5010338;28;20041;-81
2021/07/16 07:54:41;;;;;;;6.45;3.03;;;27.30;96.70;;;;;;5010003;28;20022;-76
2021/07/16 07:57:06;;;;;;;7.53;2.50;;;27.50;96.70;;;;;;5011567;28;20514;-83
2021/07/16 07:59:32;;;;;;;5.25;2.28;;;27.50;96.80;;;;;;5012041;28;20022;-85
2021/07/16 08:01:58;;;;;;;5.90;2.42;;;27.50;96.30;;;;;;5012604;28;20049;-88
2021/07/16 08:04:24;;;;;;;15.02;2.78;;;27.60;96.50;;;;;;5011811;28;20481;-78
2021/07/16 08:06:49;;;;;;;10.10;2.20;;;27.80;96.40;;;;;;5012106;28;20076;-81
2021/07/16 08:09:15;;;;;;;3.72;1.63;;;27.90;96.20;;;;;;5010600;28;20028;-83
2021/07/16 08:11:42;;;;;;;4.05;1.90;;;27.80;96.50;;;;;;4982675;28;20065;-85
2021/07/16 08:14:07;;;;;;;14.57;2.50;;;27.70;97.40;;;;;;5018853;28;20018;-92
2021/07/16 08:16:34;;;;;;;5.20;2.88;;;27.40;97.50;;;;;;5020305;28;20038;-81
2021/07/16 08:18:59;;;;;;;5.03;2.70;;;27.30;97.50;;;;;;4998069;28;20109;-77
2021/07/16 08:21:25;;;;;;;6.50;2.47;;;27.30;97.80;;;;;;5004253;28;20172;-75
2021/07/16 08:23:51;;;;;;;5.43;2.13;;;27.30;97.80;;;;;;5011439;28;20101;-85
2021/07/16 08:26:19;;;;;;;7.15;2.00;;;27.30;97.60;;;;;;5010258;28;20075;-75
2021/07/16 08:28:45;;;;;;;8.73;1.80;;;27.30;98.10;;;;;;5014187;28;20789;-74
2021/07/16 08:31:11;;;;;;;5.05;1.60;;;27.30;98.40;;;;;;5014403;28;20121;-74
2021/07/16 08:33:37;;;;;;;5.70;2.20;;;27.20;98.10;;;;;;5015969;28;20030;-75
2021/07/16 08:36:03;;;;;;;21.95;2.00;;;27.20;98.40;;;;;;5013267;28;20034;-86
2021/07/16 08:38:29;;;;;;;6.32;2.13;;;27.00;98.20;;;;;;5016021;28;20045;-77
2021/07/16 08:40:55;;;;;;;6.97;2.08;;;27.10;98.20;;;;;;5010557;28;20030;-75
2021/07/16 08:43:24;;;;;;;6.07;1.80;;;27.20;98.10;;;;;;5007911;28;20116;-84
2021/07/16 08:45:52;;;;;;;10.40;2.05;;;27.10;98.20;;;;;;5006143;28;20051;-75
2021/07/16 08:48:18;;;;;;;13.00;2.33;;;27.00;98.50;;;;;;5010802;28;20033;-78
2021/07/16 08:50:44;;;;;;;17.98;1.70;;;27.20;98.40;;;;;;5009500;28;20040;-78
2021/07/16 08:53:12;;;;;;;6.20;1.80;;;27.20;98.20;;;;;;5010451;28;20060;-77
2021/07/16 08:55:41;;;;;;;4.50;1.80;;;27.10;98.50;;;;;;5010638;28;20061;-78
2021/07/16 08:58:07;;;;;;;6.85;1.90;;;27.20;98.80;;;;;;5013818;28;20020;-79
2021/07/16 09:00:33;;;;;;;6.50;1.80;;;27.30;98.70;;;;;;5013870;28;20109;-75
2021/07/16 09:03:00;;;;;;;5.43;1.80;;;27.30;98.80;;;;;;5014188;28;20022;-77
2021/07/16 09:05:42;;;;;;;5.47;1.75;;;27.40;98.30;;;;;;5015175;28;20474;-81
2021/07/16 09:08:14;;;;;;;12.60;1.88;;;27.50;98.30;;;;;;5012517;28;20026;-78
2021/07/16 09:10:46;;;;;;;6.15;1.60;;;27.50;97.90;;;;;;5014047;28;20014;-77
2021/07/16 09:13:13;;;;;;;10.95;2.20;;;27.90;97.80;;;;;;5012064;28;20034;-78
2021/07/16 09:15:42;;;;;;;19.10;2.72;;;28.40;97.50;;;;;;5002198;28;20030;-78
2021/07/16 09:18:23;;;;;;;4.50;1.80;;;28.40;97.40;;;;;;5013445;28;20476;-85
2021/07/16 09:21:02;;;;;;;4.68;2.25;;;28.50;97.10;;;;;;5011446;28;20107;-75
2021/07/16 09:23:38;;;;;;;6.13;1.63;;;28.90;97.20;;;;;;5009108;28;20038;-80
2021/07/16 09:26:12;;;;;;;9.85;2.17;;;29.30;96.50;;;;;;5010855;28;20490;-86
2021/07/16 09:28:46;;;;;;;11.57;2.63;;;29.20;96.50;;;;;;5014618;28;20087;-76
2021/07/16 09:31:14;;;;;;;13.98;2.03;;;29.20;96.60;;;;;;5014847;28;20088;-73
2021/07/16 09:33:50;;;;;;;7.93;1.98;;;29.20;96.60;;;;;;5014667;28;20022;-74
2021/07/16 09:36:38;;;;;;;10.02;2.10;;;29.00;96.80;;;;;;5011039;28;20117;-83
2021/07/16 09:39:09;;;;;;;7.95;1.90;;;28.60;97.00;;;;;;5009764;28;20036;-77
2021/07/16 09:41:48;;;;;;;7.93;2.10;;;28.30;97.70;;;;;;4990566;28;20025;-88
2021/07/16 09:44:16;;;;;;;5.13;2.20;;;28.10;98.00;;;;;;4996730;28;20269;-75
2021/07/16 09:47:06;;;;;;;11.85;2.10;;;27.90;98.40;;;;;;5006934;28;20482;-76
2021/07/16 09:49:32;;;;;;;9.48;2.22;;;27.80;98.30;;;;;;4990984;28;20053;-76
2021/07/16 09:52:13;;;;;;;6.95;2.20;;;27.60;99.00;;;;;;5010285;28;20058;-77
2021/07/16 09:55:06;;;;;;;15.90;2.47;;;27.50;99.00;;;;;;5002978;28;20029;-80
2021/07/16 09:57:45;;;;;;;19.88;3.47;;;27.30;99.40;;;;;;5009136;28;20042;-76
2021/07/16 10:00:25;;;;;;;14.65;2.92;;;27.10;99.40;;;;;;5010421;28;20010;-78
2021/07/16 10:02:55;;;;;;;5.90;2.50;;;26.90;99.90;;;;;;5008160;28;20474;-78
2021/07/16 10:05:21;;;;;;;4.35;2.25;;;26.70;99.90;;;;;;5011399;28;20347;-83
2021/07/16 10:07:47;;;;;;;5.50;2.00;;;26.50;99.90;;;;;;5013285;28;20037;-74
2021/07/16 10:10:14;;;;;;;5.10;2.30;;;26.30;99.90;;;;;;5009645;28;20030;-74
2021/07/16 10:12:42;;;;;;;10.13;2.30;;;26.20;99.90;;;;;;5007886;28;20068;-82
2021/07/16 10:15:13;;;;;;;8.20;2.08;;;26.10;99.90;;;;;;5009061;28;20360;-76
2021/07/16 10:17:39;;;;;;;9.50;2.33;;;25.90;99.90;;;;;;5009004;28;20533;-78
2021/07/16 10:20:10;;;;;;;8.25;2.60;;;25.80;99.90;;;;;;5004037;28;20268;-76
2021/07/16 10:22:40;;;;;;;8.38;2.45;;;25.60;99.90;;;;;;5006437;28;20026;-74
2021/07/16 10:25:10;;;;;;;4.07;2.20;;;25.50;99.90;;;;;;4998552;28;20023;-75
2021/07/16 10:27:39;;;;;;;7.22;2.03;;;25.30;99.90;;;;;;5003286;28;20033;-81
2021/07/16 10:30:09;;;;;;;7.03;2.55;;;25.20;99.90;;;;;;5004558;28;20089;-74
2021/07/16 10:32:50;;;;;;;4.93;2.85;;;25.00;99.90;;;;;;5005765;28;20531;-80
2021/07/16 10:35:19;;;;;;;4.15;2.15;;;24.80;99.90;;;;;;4998491;28;20018;-78
2021/07/16 10:37:45;;;;;;;4.80;1.85;;;24.70;99.90;;;;;;5005721;28;20033;-75
2021/07/16 10:40:46;;;;;;;7.55;2.70;;;24.60;99.90;;;;;;4996649;28;20035;-79
2021/07/16 10:43:23;;;;;;;7.45;2.50;;;24.50;99.90;;;;;;5003222;28;20014;-74
2021/07/16 10:45:49;;;;;;;15.15;2.53;;;24.50;99.90;;;;;;5003637;28;20026;-78
2021/07/16 10:48:23;;;;;;;9.32;2.63;;;24.40;99.90;;;;;;5005924;28;20021;-76
2021/07/16 10:50:50;;;;;;;4.68;2.80;;;24.30;99.90;;;;;;5009023;28;20022;-74
2021/07/16 10:53:28;;;;;;;13.18;2.72;;;24.10;99.90;;;;;;5002449;28;20062;-75
2021/07/16 10:55:56;;;;;;;6.25;2.60;;;23.80;99.90;;;;;;5005262;28;20038;-78
2021/07/16 10:58:27;;;;;;;6.97;2.67;;;23.50;99.90;;;;;;5012139;28;20025;-74
2021/07/16 11:00:58;;;;;;;8.25;3.45;;;23.20;99.90;;;;;;5011581;28;20097;-75
2021/07/16 11:03:39;;;;;;;8.85;2.72;;;22.90;99.90;;;;;;5010721;28;20033;-80
2021/07/16 11:06:05;;;;;;;5.37;2.70;;;22.70;99.90;;;;;;5007857;28;20025;-75
2021/07/16 11:08:34;;;;;;;4.32;2.70;;;22.60;99.90;;;;;;5012616;28;20030;-75
2021/07/16 11:11:04;;;;;;;4.03;2.65;;;22.50;99.90;;;;;;5010396;28;20026;-78
2021/07/16 11:13:38;;;;;;;3.85;2.38;;;22.40;99.90;;;;;;5009762;28;20048;-78
2021/07/16 11:16:16;;;;;;;5.40;2.65;;;22.40;99.90;;;;;;4997425;28;20053;-85
2021/07/16 11:18:59;;;;;;;11.52;2.92;;;22.40;99.90;;;;;;5011127;28;20517;-74
2021/07/16 11:24:06;;;;;;;7.72;3.13;;;22.50;99.90;;;;;;5011255;28;20042;-75
2021/07/16 11:27:12;;;;;;;7.00;2.75;;;22.40;99.90;;;;;;5000426;28;20498;-75
2021/07/16 11:29:50;;;;;;;8.27;2.55;;;22.50;99.90;;;;;;5006446;28;20068;-74
2021/07/16 11:32:24;;;;;;;18.92;2.63;;;22.50;99.90;;;;;;5006854;28;20040;-74
2021/07/16 11:34:50;;;;;;;6.85;2.28;;;22.60;99.90;;;;;;5011286;28;20045;-81
2021/07/16 11:37:27;;;;;;;7.00;2.63;;;22.60;99.90;;;;;;5005819;28;20034;-77
2021/07/16 11:40:03;;;;;;;8.52;2.35;;;22.70;99.90;;;;;;4996290;28;20026;-75
2021/07/16 11:42:31;;;;;;;7.95;2.60;;;22.70;99.90;;;;;;4993843;28;20030;-80
2021/07/16 11:44:57;;;;;;;11.60;2.70;;;22.70;99.90;;;;;;5006040;28;20032;-82
2021/07/16 11:47:24;;;;;;;13.10;2.63;;;22.70;99.90;;;;;;5004061;28;20019;-74
2021/07/16 11:49:55;;;;;;;5.40;2.50;;;22.70;99.90;;;;;;4993692;28;20490;-77
2021/07/16 11:52:26;;;;;;;7.25;2.50;;;22.60;99.90;;;;;;5005235;28;20065;-75
2021/07/16 11:54:54;;;;;;;5.13;2.33;;;22.60;99.90;;;;;;5008074;28;20105;-79
2021/07/16 11:57:20;;;;;;;6.03;2.72;;;22.50;99.90;;;;;;4996991;28;20041;-73
2021/07/16 11:59:52;;;;;;;7.63;2.78;;;22.40;99.90;;;;;;4993760;28;20026;-76
2021/07/16 12:02:19;;;;;;;6.82;2.47;;;22.50;99.90;;;;;;4994023;28;20030;-74
2021/07/16 12:04:47;;;;;;;5.35;2.50;;;22.60;99.90;;;;;;4993947;28;20437;-74
2021/07/16 12:07:14;;;;;;;6.57;2.58;;;22.60;99.90;;;;;;4993401;28;20046;-75
2021/07/16 12:09:44;;;;;;;4.43;2.55;;;22.70;99.90;;;;;;4992743;28;20030;-73
2021/07/16 12:12:13;;;;;;;4.43;2.10;;;22.80;99.90;;;;;;4993828;28;20019;-74
2021/07/16 12:14:54;;;;;;;8.27;2.90;;;22.90;99.90;;;;;;4995380;28;20394;-78
2021/07/16 12:17:39;;;;;;;4.45;2.30;;;23.00;99.90;;;;;;5021067;28;20029;-75
2021/07/16 12:20:11;;;;;;;6.65;2.67;;;23.10;99.90;;;;;;5005637;28;20034;-76
2021/07/16 12:22:43;;;;;;;9.25;2.67;;;23.20;99.90;;;;;;5006714;28;20030;-75
2021/07/16 12:25:09;;;;;;;6.10;2.50;;;23.30;99.90;;;;;;5011321;28;20029;-81
2021/07/16 12:27:35;;;;;;;4.07;1.98;;;23.50;99.90;;;;;;5010763;28;20030;-76
2021/07/16 12:30:05;;;;;;;7.15;2.45;;;23.50;99.90;;;;;;5005968;28;20612;-81
2021/07/16 12:32:40;;;;;;;8.27;2.63;;;23.80;99.90;;;;;;5000022;28;20120;-77
2021/07/16 12:35:36;;;;;;;7.53;2.28;;;24.10;99.90;;;;;;4999106;28;20054;-76
2021/07/16 12:38:05;;;;;;;9.45;2.30;;;24.30;99.90;;;;;;4981360;28;20104;-75
2021/07/16 12:40:32;;;;;;;7.65;1.67;;;24.60;99.90;;;;;;5001275;28;20602;-76
2021/07/16 12:43:02;;;;;;;12.85;2.75;;;24.90;99.90;;;;;;4996170;28;20022;-74
2021/07/16 12:45:46;;;;;;;8.43;2.53;;;25.20;99.90;;;;;;5003929;28;20074;-77
2021/07/16 12:48:20;;;;;;;7.78;2.55;;;25.50;99.90;;;;;;5003460;28;20475;-81
2021/07/16 12:50:46;;;;;;;6.28;2.63;;;25.70;99.90;;;;;;5000297;28;20061;-74
2021/07/16 12:53:26;;;;;;;7.85;2.15;;;25.90;99.90;;;;;;5002637;28;20022;-82